createdAt,value
2018-01-26T00:02:04.344Z,46.20
2018-01-26T00:04:31.885Z,35.20
2018-01-26T00:06:59.721Z,40.43
2018-01-26T00:09:27.241Z,40.67
2018-01-26T00:11:54.771Z,42.23
2018-01-26T00:14:22.695Z,40.23
2018-01-26T00:16:50.207Z,43.33
2018-01-26T00:19:17.732Z,41.30
2018-01-26T00:21:45.275Z,42.47
2018-01-26T00:24:12.789Z,43.43
2018-01-26T00:26:40.373Z,46.53
2018-01-26T00:29:07.970Z,49.10
2018-01-26T00:31:35.510Z,45.47
2018-01-26T00:34:03.097Z,45.33
2018-01-26T00:36:30.650Z,43.70
2018-01-26T00:38:58.236Z,47.63
2018-01-26T00:41:25.774Z,42.70
2018-01-26T00:43:53.347Z,43.10
2018-01-26T00:46:20.892Z,43.40
2018-01-26T00:48:48.485Z,51.20
2018-01-26T00:51:16.030Z,57.20
2018-01-26T00:53:43.565Z,44.83
2018-01-26T00:56:11.120Z,50.97
2018-01-26T00:58:38.692Z,42.70
2018-01-26T01:01:06.297Z,59.13
2018-01-26T01:03:33.847Z,54.53
2018-01-26T01:06:01.431Z,43.20
2018-01-26T01:08:28.995Z,55.97
2018-01-26T01:10:56.614Z,43.47
2018-01-26T01:13:24.147Z,42.87
2018-01-26T01:15:51.683Z,48.00
2018-01-26T01:18:19.597Z,50.67
2018-01-26T01:20:47.158Z,49.10
2018-01-26T01:23:14.699Z,54.17
2018-01-26T01:25:42.266Z,51.47
2018-01-26T01:28:09.797Z,49.47
2018-01-26T01:30:37.335Z,47.23
2018-01-26T01:33:04.914Z,45.67
2018-01-26T01:35:32.480Z,44.20
2018-01-26T01:38:00.010Z,46.80
2018-01-26T01:40:27.584Z,49.03
2018-01-26T01:42:55.123Z,54.10
2018-01-26T01:45:22.661Z,47.83
2018-01-26T01:47:50.203Z,59.57
2018-01-26T01:50:17.882Z,66.93
2018-01-26T01:52:45.418Z,55.73
2018-01-26T01:55:12.946Z,56.27
2018-01-26T01:57:40.558Z,57.50
2018-01-26T02:00:08.127Z,59.83
2018-01-26T02:02:35.695Z,60.63
2018-01-26T02:05:03.234Z,57.33
2018-01-26T02:07:30.791Z,54.47
2018-01-26T02:09:58.327Z,48.50
2018-01-26T02:12:25.862Z,57.90
2018-01-26T02:14:53.706Z,60.13
2018-01-26T02:17:21.223Z,63.33
2018-01-26T02:19:48.745Z,66.37
2018-01-26T02:22:16.326Z,58.50
2018-01-26T02:24:43.838Z,63.13
2018-01-26T02:27:11.385Z,59.20
2018-01-26T02:29:38.914Z,68.03
2018-01-26T02:32:06.464Z,67.53
2018-01-26T02:34:34.014Z,70.90
2018-01-26T02:37:01.614Z,66.63
2018-01-26T02:39:29.145Z,68.07
2018-01-26T02:41:56.696Z,81.67
2018-01-26T02:44:24.240Z,85.67
2018-01-26T02:46:51.783Z,86.57
2018-01-26T02:49:19.300Z,98.40
2018-01-26T02:51:47.117Z,64.67
2018-01-26T02:54:14.639Z,72.00
2018-01-26T02:56:42.157Z,89.50
2018-01-26T02:59:09.738Z,79.87
2018-01-26T03:01:37.302Z,82.17
2018-01-26T03:04:04.861Z,85.60
2018-01-26T03:06:32.426Z,87.20
2018-01-26T03:08:59.966Z,115.03
2018-01-26T03:11:27.493Z,88.30
2018-01-26T03:13:55.076Z,93.07
2018-01-26T03:16:22.611Z,88.13
2018-01-26T03:18:50.160Z,88.77
2018-01-26T03:21:17.758Z,102.53
2018-01-26T03:23:45.302Z,87.67
2018-01-26T03:26:12.839Z,87.33
2018-01-26T03:28:40.769Z,104.17
2018-01-26T03:31:08.314Z,106.40
2018-01-26T03:33:35.839Z,121.00
2018-01-26T03:36:03.671Z,112.87
2018-01-26T03:38:31.215Z,118.77
2018-01-26T03:40:58.781Z,106.93
2018-01-26T03:43:26.332Z,113.07
2018-01-26T03:45:53.861Z,122.07
2018-01-26T03:48:21.407Z,115.47
2018-01-26T03:50:48.967Z,117.93
2018-01-26T03:53:16.514Z,103.97
2018-01-26T03:55:44.376Z,113.80
2018-01-26T03:58:11.914Z,100.00
2018-01-26T04:00:39.463Z,103.30
2018-01-26T04:03:07.011Z,100.93
2018-01-26T04:05:34.588Z,117.23
2018-01-26T04:08:02.101Z,107.57
2018-01-26T04:10:29.642Z,106.03
2018-01-26T04:12:57.202Z,109.00
2018-01-26T04:15:24.767Z,126.23
2018-01-26T04:17:52.320Z,123.10
2018-01-26T04:20:19.865Z,121.03
2018-01-26T04:22:47.407Z,111.40
2018-01-26T04:25:14.969Z,128.20
2018-01-26T04:27:42.511Z,120.73
2018-01-26T04:30:10.075Z,139.33
2018-01-26T04:32:37.638Z,133.73
2018-01-26T04:35:05.233Z,123.33
2018-01-26T04:37:32.780Z,135.47
2018-01-26T04:40:00.318Z,134.17
2018-01-26T04:42:27.905Z,159.90
2018-01-26T04:44:55.450Z,136.20
2018-01-26T04:47:22.984Z,157.53
2018-01-26T04:49:50.523Z,147.70
2018-01-26T04:52:18.258Z,145.23
2018-01-26T04:54:45.797Z,162.70
2018-01-26T04:57:13.358Z,166.83
2018-01-26T04:59:41.291Z,168.57
2018-01-26T05:02:08.826Z,165.27
2018-01-26T05:04:36.389Z,186.67
2018-01-26T05:07:03.967Z,166.07
2018-01-26T05:09:31.487Z,193.73
2018-01-26T05:11:58.999Z,170.87
2018-01-26T05:14:26.586Z,161.07
2018-01-26T05:16:54.135Z,175.27
2018-01-26T05:19:21.684Z,180.47
2018-01-26T05:21:49.278Z,173.07
2018-01-26T05:24:16.809Z,203.10
2018-01-26T05:26:45.323Z,205.13
2018-01-26T05:29:12.838Z,182.60
2018-01-26T05:31:40.515Z,179.67
2018-01-26T05:34:08.107Z,160.67
2018-01-26T05:36:35.735Z,177.83
2018-01-26T05:39:03.336Z,222.70
2018-01-26T05:41:30.938Z,198.03
2018-01-26T05:43:58.640Z,199.37
2018-01-26T05:46:26.187Z,213.87
2018-01-26T05:48:53.857Z,212.43
2018-01-26T05:51:21.434Z,197.10
2018-01-26T05:53:49.021Z,260.17
2018-01-26T05:56:16.599Z,194.30
2018-01-26T05:58:44.226Z,311.60
2018-01-26T06:01:11.801Z,372.67
2018-01-26T06:03:39.386Z,163.23
2018-01-26T06:06:06.958Z,240.50
2018-01-26T06:08:34.531Z,332.63
2018-01-26T06:11:02.098Z,196.77
2018-01-26T06:13:29.662Z,200.80
2018-01-26T06:15:57.202Z,312.23
2018-01-26T06:18:24.785Z,264.47
2018-01-26T06:20:52.322Z,205.60
2018-01-26T06:23:19.867Z,211.77
2018-01-26T06:25:47.474Z,220.17
2018-01-26T06:28:15.047Z,166.30
2018-01-26T06:30:42.609Z,368.97
2018-01-26T06:33:10.166Z,236.33
2018-01-26T06:35:37.706Z,232.20
2018-01-26T06:38:05.299Z,297.20
2018-01-26T06:40:32.852Z,301.23
2018-01-26T06:43:00.390Z,342.40
2018-01-26T06:45:27.969Z,209.80
2018-01-26T06:47:55.581Z,189.87
2018-01-26T06:50:23.205Z,150.83
2018-01-26T06:52:50.732Z,208.43
2018-01-26T06:55:18.542Z,218.93
2018-01-26T06:57:46.059Z,217.90
2018-01-26T07:00:13.598Z,171.87
2018-01-26T07:02:41.171Z,183.77
2018-01-26T07:05:08.719Z,328.13
2018-01-26T07:07:36.272Z,163.27
2018-01-26T07:10:03.825Z,280.57
2018-01-26T07:12:31.395Z,121.87
2018-01-26T07:14:58.954Z,323.60
2018-01-26T07:17:26.509Z,251.97
2018-01-26T07:19:54.035Z,284.93
2018-01-26T07:22:21.613Z,195.83
2018-01-26T07:24:49.135Z,164.13
2018-01-26T07:27:16.690Z,359.47
2018-01-26T07:29:44.264Z,243.60
2018-01-26T07:32:11.787Z,264.17
2018-01-26T07:34:39.363Z,267.20
2018-01-26T07:37:06.911Z,378.43
2018-01-26T07:39:34.511Z,353.07
2018-01-26T07:42:02.054Z,462.67
2018-01-26T07:44:29.580Z,333.50
2018-01-26T07:46:57.473Z,359.43
2018-01-26T07:49:25.024Z,326.87
2018-01-26T07:51:52.561Z,384.17
2018-01-26T07:54:20.116Z,288.00
2018-01-26T07:56:47.694Z,197.50
2018-01-26T07:59:15.230Z,195.90
2018-01-26T08:01:42.799Z,179.37
2018-01-26T08:04:10.338Z,230.63
2018-01-26T08:06:37.924Z,238.23
2018-01-26T08:09:05.484Z,254.97
2018-01-26T08:11:33.052Z,250.03
2018-01-26T08:14:00.604Z,279.67
2018-01-26T08:16:28.171Z,197.10
2018-01-26T08:18:55.697Z,198.83
2018-01-26T08:21:23.223Z,313.30
2018-01-26T08:23:50.789Z,279.70
2018-01-26T08:26:18.387Z,362.43
2018-01-26T08:28:45.906Z,272.00
2018-01-26T08:31:13.451Z,185.70
2018-01-26T08:33:41.023Z,357.70
2018-01-26T08:36:08.586Z,247.67
2018-01-26T08:38:36.158Z,309.10
2018-01-26T08:41:03.704Z,313.23
2018-01-26T08:43:31.272Z,184.93
2018-01-26T08:45:58.815Z,210.40
2018-01-26T08:48:26.349Z,405.00
2018-01-26T08:50:54.274Z,253.90
2018-01-26T08:53:21.798Z,292.93
2018-01-26T08:55:49.351Z,220.53
2018-01-26T08:58:16.916Z,312.80
2018-01-26T09:00:44.457Z,398.23
2018-01-26T09:03:12.331Z,322.33
2018-01-26T09:05:39.875Z,158.73
2018-01-26T09:08:07.414Z,304.33
2018-01-26T09:10:35.016Z,234.87
2018-01-26T09:13:02.558Z,378.47
2018-01-26T09:15:30.084Z,325.53
2018-01-26T09:17:57.659Z,194.13
2018-01-26T09:20:25.241Z,384.10
2018-01-26T09:22:52.763Z,193.37
2018-01-26T09:25:20.298Z,214.23
2018-01-26T09:27:47.894Z,260.60
2018-01-26T09:30:15.462Z,190.80
2018-01-26T09:32:43.036Z,250.93
2018-01-26T09:35:10.612Z,234.40
2018-01-26T09:37:38.186Z,203.67
2018-01-26T09:40:05.758Z,158.20
2018-01-26T09:42:33.357Z,211.17
2018-01-26T09:45:00.926Z,202.90
2018-01-26T09:47:28.517Z,155.20
2018-01-26T09:49:56.105Z,168.43
2018-01-26T09:52:23.630Z,160.87
2018-01-26T09:54:51.199Z,166.43
2018-01-26T09:57:18.738Z,137.23
2018-01-26T09:59:46.306Z,144.77
2018-01-26T10:02:13.823Z,205.57
2018-01-26T10:04:41.400Z,154.77
2018-01-26T10:07:08.951Z,197.23
2018-01-26T10:09:36.486Z,155.37
2018-01-26T10:12:04.030Z,107.47
2018-01-26T10:14:31.575Z,146.47
2018-01-26T10:16:59.152Z,126.17
2018-01-26T10:19:26.678Z,96.77
2018-01-26T10:21:54.279Z,116.03
2018-01-26T10:24:21.804Z,140.97
2018-01-26T10:26:49.350Z,129.70
2018-01-26T10:29:16.931Z,171.43
2018-01-26T10:31:44.483Z,181.87
2018-01-26T10:34:12.028Z,157.70
2018-01-26T10:36:39.581Z,122.50
2018-01-26T10:39:07.100Z,130.00
2018-01-26T10:41:34.671Z,139.07
2018-01-26T10:44:02.260Z,153.03
2018-01-26T10:46:29.830Z,165.57
2018-01-26T10:48:57.384Z,166.90
2018-01-26T10:51:24.916Z,173.07
2018-01-26T10:53:52.777Z,155.10
2018-01-26T10:56:20.300Z,170.17
2018-01-26T10:58:47.864Z,134.83
2018-01-26T11:01:15.398Z,102.43
2018-01-26T11:03:42.998Z,92.07
2018-01-26T11:06:10.590Z,112.67
2018-01-26T11:08:38.139Z,102.37
2018-01-26T11:11:05.679Z,107.23
2018-01-26T11:13:33.228Z,108.23
2018-01-26T11:16:00.809Z,156.73
2018-01-26T11:18:28.341Z,116.70
2018-01-26T11:20:55.964Z,106.23
2018-01-26T11:23:23.498Z,90.87
2018-01-26T11:25:51.043Z,95.17
2018-01-26T11:28:18.598Z,92.77
2018-01-26T11:30:46.182Z,106.80
2018-01-26T11:33:13.762Z,93.43
2018-01-26T11:35:41.293Z,91.97
2018-01-26T11:38:08.844Z,118.30
2018-01-26T11:40:36.389Z,104.73
2018-01-26T11:43:03.978Z,90.87
2018-01-26T11:45:31.537Z,104.20
2018-01-26T11:47:59.138Z,95.50
2018-01-26T11:50:26.683Z,87.17
2018-01-26T11:52:54.207Z,88.70
2018-01-26T11:55:21.789Z,78.87
2018-01-26T11:57:49.323Z,92.80
2018-01-26T12:00:16.898Z,83.57
2018-01-26T12:02:44.423Z,95.67
2018-01-26T12:05:11.967Z,90.23
2018-01-26T12:07:39.517Z,92.60
2018-01-26T12:10:07.082Z,97.20
2018-01-26T12:12:34.604Z,99.03
2018-01-26T12:15:02.190Z,89.47
2018-01-26T12:17:30.097Z,93.87
2018-01-26T12:19:57.654Z,109.20
2018-01-26T12:22:25.190Z,107.87
2018-01-26T12:24:52.752Z,88.80
2018-01-26T12:27:20.322Z,94.53
2018-01-26T12:29:47.875Z,98.33
2018-01-26T12:32:15.458Z,85.27
2018-01-26T12:34:43.004Z,84.13
2018-01-26T12:37:10.520Z,87.67
2018-01-26T12:39:38.446Z,73.10
2018-01-26T12:42:06.333Z,84.07
2018-01-26T12:44:33.860Z,75.30
2018-01-26T12:47:01.403Z,78.97
2018-01-26T12:49:28.920Z,71.00
2018-01-26T12:51:56.487Z,81.90
2018-01-26T12:54:24.017Z,79.63
2018-01-26T12:56:51.527Z,69.83
2018-01-26T12:59:19.063Z,74.33
2018-01-26T13:01:46.613Z,58.23
2018-01-26T13:04:14.191Z,80.60
2018-01-26T13:06:41.703Z,68.73
2018-01-26T13:09:09.243Z,60.10
2018-01-26T13:11:37.146Z,63.97
2018-01-26T13:14:04.680Z,74.83
2018-01-26T13:16:32.209Z,101.57
2018-01-26T13:18:59.764Z,102.23
2018-01-26T13:21:27.308Z,103.83
2018-01-26T13:23:55.162Z,87.73
2018-01-26T13:26:22.690Z,92.53
2018-01-26T13:28:50.250Z,114.47
2018-01-26T13:31:17.853Z,135.30
2018-01-26T13:33:45.392Z,96.60
2018-01-26T13:36:12.922Z,77.57
2018-01-26T13:38:40.505Z,114.50
2018-01-26T13:41:08.042Z,119.10
2018-01-26T13:43:35.586Z,100.80
2018-01-26T13:46:03.151Z,85.40
2018-01-26T13:48:30.682Z,82.23
2018-01-26T13:50:58.217Z,79.43
2018-01-26T13:53:25.760Z,91.63
2018-01-26T13:55:53.287Z,67.27
2018-01-26T13:58:20.861Z,72.07
2018-01-26T14:00:48.412Z,76.83
2018-01-26T14:03:15.971Z,71.77
2018-01-26T14:05:43.557Z,81.33
2018-01-26T14:08:11.127Z,81.17
2018-01-26T14:10:38.675Z,72.33
2018-01-26T14:13:06.246Z,86.53
2018-01-26T14:15:33.787Z,70.83
2018-01-26T14:18:01.710Z,65.03
2018-01-26T14:20:29.264Z,55.97
2018-01-26T14:22:56.790Z,64.70
2018-01-26T14:25:24.335Z,70.40
2018-01-26T14:27:51.910Z,74.40
2018-01-26T14:30:19.440Z,78.83
2018-01-26T14:32:47.337Z,81.77
2018-01-26T14:35:14.884Z,67.07
2018-01-26T14:37:42.410Z,65.60
2018-01-26T14:40:09.989Z,77.53
2018-01-26T14:42:37.576Z,67.30
2018-01-26T14:45:05.137Z,70.13
2018-01-26T14:47:32.663Z,71.37
2018-01-26T14:50:00.211Z,79.27
2018-01-26T14:52:27.750Z,73.90
2018-01-26T14:54:55.283Z,75.53
2018-01-26T14:57:22.827Z,63.77
2018-01-26T14:59:50.769Z,67.63
2018-01-26T15:02:18.322Z,88.27
2018-01-26T15:04:45.862Z,70.63
2018-01-26T15:07:13.419Z,73.23
2018-01-26T15:09:40.962Z,97.87
2018-01-26T15:12:08.530Z,85.43
2018-01-26T15:14:36.043Z,70.10
2018-01-26T15:17:03.647Z,80.17
2018-01-26T15:19:31.184Z,96.33
2018-01-26T15:21:58.788Z,73.20
2018-01-26T15:24:26.350Z,83.53
2018-01-26T15:26:53.878Z,83.83
2018-01-26T15:29:21.440Z,71.07
2018-01-26T15:31:48.982Z,75.97
2018-01-26T15:34:16.574Z,75.83
2018-01-26T15:36:44.091Z,77.77
2018-01-26T15:39:11.638Z,70.30
2018-01-26T15:41:39.194Z,83.70
2018-01-26T15:44:06.742Z,66.33
2018-01-26T15:46:34.647Z,66.97
2018-01-26T15:49:02.199Z,62.67
2018-01-26T15:51:29.751Z,65.73
2018-01-26T15:53:57.326Z,66.50
2018-01-26T15:56:24.865Z,78.50
2018-01-26T15:58:52.426Z,77.27
2018-01-26T16:01:19.952Z,64.20
2018-01-26T16:03:47.486Z,75.07
2018-01-26T16:06:15.014Z,76.73
2018-01-26T16:08:42.584Z,78.73
2018-01-26T16:11:10.100Z,71.83
2018-01-26T16:13:37.660Z,88.20
2018-01-26T16:16:05.209Z,83.93
2018-01-26T16:18:32.770Z,70.73
2018-01-26T16:21:03.305Z,78.00
2018-01-26T16:23:30.884Z,87.27
2018-01-26T16:25:58.409Z,99.03
2018-01-26T16:28:25.951Z,88.30
2018-01-26T16:30:53.487Z,91.57
2018-01-26T16:33:21.078Z,74.30
2018-01-26T16:35:48.619Z,82.17
2018-01-26T16:38:16.183Z,80.00
2018-01-26T16:40:43.712Z,78.53
2018-01-26T16:43:11.244Z,90.13
2018-01-26T16:45:38.803Z,78.33
2018-01-26T16:48:06.463Z,76.83
2018-01-26T16:50:34.297Z,77.00
2018-01-26T16:53:01.890Z,77.87
2018-01-26T16:55:29.446Z,75.70
2018-01-26T16:57:57.270Z,80.67
2018-01-26T17:00:24.831Z,82.60
2018-01-26T17:02:52.346Z,87.20
2018-01-26T17:05:19.877Z,87.53
2018-01-26T17:07:47.433Z,109.57
2018-01-26T17:10:14.973Z,87.17
2018-01-26T17:12:42.626Z,88.03
2018-01-26T17:15:10.185Z,77.20
2018-01-26T17:17:37.750Z,87.03
2018-01-26T17:20:05.276Z,98.83
2018-01-26T17:22:32.870Z,102.87
2018-01-26T17:25:00.438Z,92.73
2018-01-26T17:27:27.968Z,91.13
2018-01-26T17:29:55.597Z,90.07
2018-01-26T17:32:23.111Z,83.37
2018-01-26T17:34:50.656Z,90.90
2018-01-26T17:37:18.219Z,102.93
2018-01-26T17:39:45.768Z,112.57
2018-01-26T17:42:13.362Z,93.87
2018-01-26T17:44:40.912Z,100.77
2018-01-26T17:47:08.498Z,113.73
2018-01-26T17:49:36.038Z,93.60
2018-01-26T17:52:03.574Z,107.87
2018-01-26T17:54:31.123Z,93.43
2018-01-26T17:56:58.667Z,106.83
2018-01-26T17:59:26.292Z,116.20
2018-01-26T18:01:53.902Z,97.13
2018-01-26T18:04:21.437Z,90.07
2018-01-26T18:06:48.990Z,96.80
2018-01-26T18:09:16.502Z,91.77
2018-01-26T18:11:44.056Z,112.00
2018-01-26T18:14:11.638Z,97.90
2018-01-26T18:16:39.194Z,102.67
2018-01-26T18:19:06.737Z,84.00
2018-01-26T18:21:34.276Z,97.07
2018-01-26T18:24:01.832Z,90.57
2018-01-26T18:26:29.453Z,92.60
2018-01-26T18:28:56.986Z,97.10
2018-01-26T18:31:24.574Z,104.83
2018-01-26T18:33:52.160Z,97.80
2018-01-26T18:36:19.696Z,101.13
2018-01-26T18:38:47.663Z,93.43
2018-01-26T18:41:15.234Z,101.60
2018-01-26T18:43:42.824Z,145.27
2018-01-26T18:46:10.352Z,125.37
2018-01-26T18:48:37.922Z,118.97
2018-01-26T18:51:05.532Z,109.00
2018-01-26T18:53:33.069Z,120.17
2018-01-26T18:56:00.591Z,125.73
2018-01-26T18:58:28.242Z,136.50
2018-01-26T19:00:55.759Z,127.63
2018-01-26T19:03:23.294Z,125.97
2018-01-26T19:05:50.891Z,116.20
2018-01-26T19:08:18.430Z,108.90
2018-01-26T19:10:45.981Z,87.70
2018-01-26T19:13:13.854Z,103.37
2018-01-26T19:15:41.376Z,116.00
2018-01-26T19:18:08.908Z,99.50
2018-01-26T19:20:36.466Z,106.53
2018-01-26T19:23:04.010Z,99.87
2018-01-26T19:25:31.907Z,112.43
2018-01-26T19:27:59.450Z,96.63
2018-01-26T19:30:27.014Z,104.00
2018-01-26T19:32:54.565Z,86.20
2018-01-26T19:35:22.425Z,100.90
2018-01-26T19:37:49.965Z,89.47
2018-01-26T19:40:17.476Z,95.40
2018-01-26T19:42:45.065Z,89.43
2018-01-26T19:45:12.597Z,99.27
2018-01-26T19:47:40.135Z,100.93
2018-01-26T19:50:07.682Z,98.70
2018-01-26T19:52:35.269Z,95.83
2018-01-26T19:55:02.825Z,123.23
2018-01-26T19:57:30.364Z,108.63
2018-01-26T19:59:58.222Z,91.97
2018-01-26T20:02:25.816Z,97.87
2018-01-26T20:05:10.670Z,92.50
2018-01-26T20:07:42.951Z,93.60
2018-01-26T20:10:10.487Z,97.17
2018-01-26T20:12:43.652Z,112.77
2018-01-26T20:15:11.267Z,106.33
2018-01-26T20:17:38.818Z,103.13
2018-01-26T20:20:06.354Z,98.63
2018-01-26T20:22:33.894Z,120.70
2018-01-26T20:25:01.417Z,110.03
2018-01-26T20:27:28.968Z,99.97
2018-01-26T20:29:56.511Z,105.23
2018-01-26T20:32:24.156Z,112.27
2018-01-26T20:34:51.669Z,118.50
2018-01-26T20:37:19.235Z,100.20
2018-01-26T20:39:46.814Z,88.10
2018-01-26T20:42:14.367Z,111.83
2018-01-26T20:44:41.909Z,120.67
2018-01-26T20:47:09.546Z,118.37
2018-01-26T20:49:38.007Z,100.13
2018-01-26T20:52:05.573Z,108.00
2018-01-26T20:54:33.178Z,123.33
2018-01-26T20:57:00.695Z,111.57
2018-01-26T20:59:28.240Z,107.90
2018-01-26T21:01:55.840Z,102.53
2018-01-26T21:04:23.381Z,102.90
2018-01-26T21:06:50.942Z,103.70
2018-01-26T21:09:18.530Z,103.23
2018-01-26T21:11:46.103Z,94.20
2018-01-26T21:14:13.694Z,113.90
2018-01-26T21:16:41.274Z,106.67
2018-01-26T21:19:08.799Z,116.40
2018-01-26T21:21:36.399Z,110.67
2018-01-26T21:24:03.960Z,104.30
2018-01-26T21:26:31.585Z,108.87
2018-01-26T21:28:59.107Z,104.00
2018-01-26T21:31:26.618Z,105.70
2018-01-26T21:33:54.183Z,106.00
2018-01-26T21:36:21.708Z,121.93
2018-01-26T21:38:49.252Z,141.50
2018-01-26T21:41:16.808Z,106.40
2018-01-26T21:43:44.356Z,129.40
2018-01-26T21:46:11.926Z,109.93
2018-01-26T21:48:39.476Z,113.13
2018-01-26T21:51:07.000Z,104.43
2018-01-26T21:53:34.552Z,114.80
2018-01-26T21:56:02.109Z,112.67
2018-01-26T21:58:29.626Z,110.93
2018-01-26T22:00:57.459Z,113.73
2018-01-26T22:03:24.992Z,112.97
2018-01-26T22:05:52.546Z,117.30
2018-01-26T22:08:20.106Z,95.43
2018-01-26T22:10:47.666Z,141.73
2018-01-26T22:13:15.235Z,134.87
2018-01-26T22:15:42.823Z,131.20
2018-01-26T22:18:11.306Z,123.80
2018-01-26T22:20:38.873Z,134.17
2018-01-26T22:23:06.428Z,136.77
2018-01-26T22:25:33.975Z,164.77
2018-01-26T22:28:01.524Z,144.50
2018-01-26T22:30:29.113Z,148.57
2018-01-26T22:32:56.680Z,147.33
2018-01-26T22:35:24.242Z,154.30
2018-01-26T22:37:51.788Z,151.33
2018-01-26T22:40:19.359Z,146.60
2018-01-26T22:42:46.932Z,134.00
2018-01-26T22:45:14.469Z,134.07
2018-01-26T22:47:42.032Z,136.67
2018-01-26T22:50:09.559Z,139.30
2018-01-26T22:52:37.141Z,138.60
2018-01-26T22:55:04.787Z,146.43
2018-01-26T22:57:32.341Z,127.43
2018-01-26T22:59:59.889Z,147.10
2018-01-26T23:02:27.454Z,139.47
2018-01-26T23:04:55.021Z,117.90
2018-01-26T23:07:22.658Z,139.20
2018-01-26T23:09:50.226Z,139.50
2018-01-26T23:12:17.766Z,128.13
2018-01-26T23:14:45.312Z,159.70
2018-01-26T23:17:12.902Z,144.27
2018-01-26T23:19:40.471Z,127.67
2018-01-26T23:22:08.025Z,146.50
2018-01-26T23:24:35.575Z,147.67
2018-01-26T23:27:03.090Z,138.20
2018-01-26T23:29:30.685Z,141.83
2018-01-26T23:31:58.270Z,150.43
2018-01-26T23:34:25.791Z,153.83
2018-01-26T23:36:53.371Z,168.03
2018-01-26T23:39:20.919Z,171.10
2018-01-26T23:41:48.460Z,161.70
2018-01-26T23:44:16.058Z,156.90
2018-01-26T23:46:43.629Z,172.80
2018-01-26T23:49:11.551Z,156.63
2018-01-26T23:51:39.090Z,152.70
2018-01-26T23:54:06.619Z,163.30
2018-01-26T23:56:34.164Z,167.60
2018-01-26T23:59:01.702Z,173.33
